»·PEaware :: N982ZC L45-KSNA

N982ZC :: L45-KSNA

FLIGHT INFORMATION

Flight Status: Arrived
Operator: Privately registered:
United States
More flights under this callsign
Pilot: Anonymous 15639 (15639)
Aircraft: Unknown
(P06T)
More flights by this aircraft type
Origin: L45 Bakersfield Mun
United States
Destination: KSNA John Wayne-Orange Co
United States
More flights between these airports :: More routes between these airports
Route: +STIGR2 STIGR V183 TAFTO V137 JEFFY V459 SLI
File this flight plan on PilotEdge
Remarks:
Altitude:
(Current/Filed)
11,000ft
Speed:
(Current/Filed)
145kts
Departed: 10-Jan-18 04:04 PM
Arrived: 10-Jan-18 05:01 PM
Distance/Time
Traveled:
114nm/0:57
Distance/Time
To Go:
Arrived

Flight Plot

Page will automatically refresh every two minutes.

Flight plan parsing failed; only flown route is shown


Map Options




Map Legend


Flown Route
Filed Route
Departure Airport
Arrival Airport
Navaid (VOR, NDB)
Fix

Horizontal Profiles

Position Reports

Time Latitude Longitude Heading Altitude Ground
Speed
10-Jan-18 15:48 35.325703 -118.997783 90 379ft 0kts
10-Jan-18 15:49 35.325703 -118.997783 90 379ft 0kts
10-Jan-18 15:50 35.325703 -118.997783 90 379ft 0kts
10-Jan-18 15:51 35.325703 -118.997783 90 379ft 0kts
10-Jan-18 15:52 35.325703 -118.997783 90 379ft 0kts
10-Jan-18 15:53 35.325703 -118.997783 90 379ft 0kts
10-Jan-18 15:54 35.325703 -118.997783 90 379ft 0kts
10-Jan-18 15:55 35.325703 -118.997783 90 379ft 0kts
10-Jan-18 15:56 35.325703 -118.997783 90 379ft 0kts
10-Jan-18 15:57 35.325703 -118.997783 90 379ft 0kts
10-Jan-18 15:58 35.325703 -118.997783 90 379ft 0kts
10-Jan-18 15:59 35.325703 -118.997783 90 379ft 0kts
10-Jan-18 16:00 35.325703 -118.997783 90 379ft 0kts
10-Jan-18 16:01 35.325703 -118.997783 90 379ft 0kts
10-Jan-18 16:02 35.325703 -118.997783 90 379ft 0kts
10-Jan-18 16:03 35.325703 -118.997783 90 379ft 0kts
10-Jan-18 16:04 35.325703 -118.997783 90 379ft 0kts
10-Jan-18 16:05 35.324507 -118.997083 165 379ft 7kts
10-Jan-18 16:06 35.322459 -118.996560 174 379ft 9kts
10-Jan-18 16:07 35.319674 -118.996239 176 379ft 5kts
10-Jan-18 16:08 35.319424 -118.996175 127 379ft 0kts
10-Jan-18 16:09 35.319417 -118.996164 125 379ft 1kts
10-Jan-18 16:10 35.326798 -118.996239 356 614ft 79kts
10-Jan-18 16:11 35.337587 -119.018289 262 2015ft 108kts
10-Jan-18 16:12 35.333109 -119.050562 262 3742ft 89kts
10-Jan-18 16:13 35.330727 -119.082712 281 5065ft 104kts
10-Jan-18 16:14 35.333389 -119.117606 283 6346ft 102kts
10-Jan-18 16:15 35.336028 -119.152060 285 7495ft 104kts
10-Jan-18 16:16 35.338839 -119.188590 286 8420ft 108kts
10-Jan-18 16:17 35.314945 -119.216507 218 9271ft 138kts
10-Jan-18 16:18 35.280970 -119.239632 221 10042ft 141kts
10-Jan-18 16:19 35.246763 -119.263322 222 10762ft 142kts
10-Jan-18 16:20 35.210419 -119.288721 221 11013ft 163kts
10-Jan-18 16:21 35.171723 -119.315550 221 11010ft 164kts
10-Jan-18 16:22 35.131822 -119.291894 127 11011ft 178kts
10-Jan-18 16:23 35.098670 -119.247707 127 11103ft 177kts
10-Jan-18 16:24 35.064869 -119.203105 127 11103ft 179kts
10-Jan-18 16:25 35.030963 -119.158484 127 11104ft 180kts
10-Jan-18 16:26 34.996840 -119.113644 127 11104ft 181kts
10-Jan-18 16:27 34.962441 -119.068480 127 11105ft 183kts
10-Jan-18 16:28 34.927634 -119.022840 127 11103ft 184kts
10-Jan-18 16:29 34.894813 -118.979933 127 11087ft 186kts
10-Jan-18 16:30 34.859875 -118.934255 127 11067ft 187kts
10-Jan-18 16:31 34.824253 -118.887753 126 11049ft 188kts
10-Jan-18 16:32 34.799046 -118.836548 91 11042ft 172kts
10-Jan-18 16:33 34.786892 -118.780852 89 11041ft 169kts
10-Jan-18 16:34 34.775069 -118.725619 89 11033ft 169kts
10-Jan-18 16:35 34.763132 -118.669885 90 11010ft 171kts
10-Jan-18 16:36 34.751072 -118.613761 90 10984ft 171kts
10-Jan-18 16:37 34.706841 -118.585271 166 10969ft 192kts
10-Jan-18 16:38 34.658119 -118.562286 153 10967ft 191kts
10-Jan-18 16:39 34.610216 -118.534267 152 10968ft 190kts
10-Jan-18 16:40 34.562669 -118.506411 151 11015ft 188kts
10-Jan-18 16:41 34.515310 -118.478678 151 11017ft 190kts
10-Jan-18 16:42 34.467746 -118.450886 151 11018ft 190kts
10-Jan-18 16:43 34.420071 -118.423068 151 11019ft 190kts
10-Jan-18 16:44 34.372705 -118.395425 151 11016ft 190kts
10-Jan-18 16:45 34.325089 -118.367674 152 11006ft 191kts
10-Jan-18 16:46 34.277733 -118.340115 154 10992ft 191kts
10-Jan-18 16:47 34.230084 -118.312462 156 10983ft 191kts
10-Jan-18 16:48 34.182320 -118.284833 155 10985ft 190kts
10-Jan-18 16:49 34.135565 -118.257762 154 10988ft 191kts
10-Jan-18 16:50 34.089445 -118.231078 154 10991ft 191kts
10-Jan-18 16:51 34.040575 -118.213606 182 10713ft 177kts
10-Jan-18 16:52 33.993282 -118.208067 182 9830ft 168kts
10-Jan-18 16:53 33.947654 -118.201308 182 8910ft 164kts
10-Jan-18 16:54 33.903794 -118.193585 182 7965ft 154kts
10-Jan-18 16:55 33.863052 -118.185953 182 7056ft 145kts
10-Jan-18 16:56 33.823293 -118.178951 182 6149ft 143kts
10-Jan-18 16:57 33.787034 -118.164156 117 5235ft 159kts
10-Jan-18 16:58 33.776560 -118.123729 111 4979ft 144kts
10-Jan-18 16:59 33.764127 -118.071329 111 4361ft 137kts
10-Jan-18 17:00 33.753880 -118.027678 112 3836ft 133kts
10-Jan-18 17:01 33.743760 -117.993295 115 3115ft 128kts
10-Jan-18 17:02 33.729125 -117.948314 112 2248ft 118kts
10-Jan-18 17:03 33.722097 -117.918969 110 1589ft 94kts
10-Jan-18 17:04 33.716818 -117.886474 109 1270ft 96kts
10-Jan-18 17:05 33.705440 -117.857836 140 759ft 74kts
10-Jan-18 17:06 33.689791 -117.859898 205 339ft 71kts
10-Jan-18 17:07 33.676355 -117.868429 206 60ft 20kts
10-Jan-18 17:08 33.675919 -117.869772 298 60ft 0kts
10-Jan-18 17:09 33.674228 -117.871245 207 60ft 11kts
10-Jan-18 17:10 33.672504 -117.873072 292 60ft 3kts
10-Jan-18 17:11 33.672619 -117.873051 28 60ft 0kts
10-Jan-18 17:12 33.672619 -117.873051 28 60ft 0kts

Navigation Log

Ident Type
Flight plan parsing failed, navigation log unavailable